Time;durP1;ratioP1;P1;durP2;ratioP2;P2;SDS_P1;SDS_P2;PMS_P1;PMS_P2;Temp;Humidity;BMP_temperature;BMP_pressure;BME280_temperature;BME280_humidity;BME280_pressure;Samples;Min_cycle;Max_cycle;Signal;HPM_P1;HPM_P2
2023/04/21 00:01:54;;;;;;;16.25;11.93;;;10.70;99.90;;;;;;5132899;27;20205;-82
2023/04/21 00:04:21;;;;;;;16.05;11.68;;;10.70;99.90;;;;;;5112174;27;20206;-82
2023/04/21 00:06:49;;;;;;;18.42;10.68;;;10.80;99.90;;;;;;5132227;27;20495;-82
2023/04/21 00:09:17;;;;;;;14.93;9.90;;;10.80;99.90;;;;;;5128469;27;20228;-82
2023/04/21 00:11:44;;;;;;;15.32;10.60;;;10.80;99.90;;;;;;5120187;27;20468;-82
2023/04/21 00:14:11;;;;;;;17.33;10.93;;;10.80;99.90;;;;;;5124642;27;20399;-81
2023/04/21 00:16:37;;;;;;;18.60;12.45;;;10.90;99.90;;;;;;5110057;27;20536;-81
2023/04/21 00:19:05;;;;;;;15.50;9.10;;;11.10;99.90;;;;;;5134890;27;20293;-83
2023/04/21 00:21:33;;;;;;;20.67;11.73;;;11.00;99.90;;;;;;5137894;27;20233;-80
2023/04/21 00:24:00;;;;;;;13.98;10.55;;;10.90;99.90;;;;;;5135298;27;20303;-80
2023/04/21 00:26:28;;;;;;;19.63;11.98;;;10.80;99.90;;;;;;5124766;27;20213;-80
2023/04/21 00:28:55;;;;;;;17.20;10.15;;;10.90;99.90;;;;;;5129773;27;20284;-81
2023/04/21 00:31:22;;;;;;;18.13;10.95;;;11.00;99.90;;;;;;5125120;27;20200;-83
2023/04/21 00:33:49;;;;;;;15.73;10.95;;;11.00;99.90;;;;;;5120119;27;20204;-82
2023/04/21 00:36:18;;;;;;;16.98;11.32;;;10.90;99.90;;;;;;5119575;27;20313;-84
2023/04/21 00:38:44;;;;;;;19.58;10.30;;;11.00;99.90;;;;;;5133513;27;20200;-83
2023/04/21 00:41:12;;;;;;;15.13;10.43;;;11.00;99.90;;;;;;5135140;27;20209;-84
2023/04/21 00:44:03;;;;;;;15.93;12.13;;;10.90;99.90;;;;;;5129487;27;20204;-82
2023/04/21 00:46:32;;;;;;;15.85;12.00;;;10.90;99.90;;;;;;5119720;27;20529;-80
2023/04/21 00:49:02;;;;;;;11.38;10.20;;;10.90;99.90;;;;;;5126443;27;20200;-81
2023/04/21 00:51:31;;;;;;;22.30;11.90;;;10.80;99.90;;;;;;5139085;27;20193;-82
2023/04/21 00:54:01;;;;;;;16.23;12.48;;;10.80;99.90;;;;;;5130769;27;20208;-83
2023/04/21 00:56:30;;;;;;;15.95;11.15;;;10.80;99.90;;;;;;5123934;27;20222;-81
2023/04/21 00:58:59;;;;;;;16.48;10.45;;;10.90;99.90;;;;;;5135436;27;20201;-81
2023/04/21 01:01:37;;;;;;;19.98;11.57;;;10.70;99.90;;;;;;5129350;27;20406;-80
2023/04/21 01:04:04;;;;;;;15.18;10.70;;;10.80;99.90;;;;;;5135506;27;20211;-80
2023/04/21 01:06:35;;;;;;;16.90;10.95;;;10.90;99.90;;;;;;5117482;27;20215;-79
2023/04/21 01:09:05;;;;;;;14.25;11.57;;;10.70;99.90;;;;;;5120752;27;20284;-80
2023/04/21 01:11:33;;;;;;;13.35;10.32;;;10.60;99.90;;;;;;5130992;27;20223;-80
2023/04/21 01:14:00;;;;;;;16.67;10.82;;;10.70;99.90;;;;;;5120304;27;20202;-81
2023/04/21 01:16:31;;;;;;;16.77;11.70;;;10.70;99.90;;;;;;5126627;27;20224;-83
2023/04/21 01:19:00;;;;;;;17.67;12.85;;;10.60;99.90;;;;;;5125852;27;20202;-81
2023/04/21 01:21:27;;;;;;;20.40;12.43;;;10.50;99.90;;;;;;5125874;27;20201;-80
2023/04/21 01:23:54;;;;;;;15.68;12.43;;;10.50;99.90;;;;;;5129882;27;20201;-80
2023/04/21 01:26:22;;;;;;;23.63;12.90;;;10.40;99.90;;;;;;5127961;27;20216;-79
2023/04/21 01:28:49;;;;;;;12.75;10.52;;;10.40;99.90;;;;;;5125566;27;20250;-80
2023/04/21 01:31:17;;;;;;;14.57;11.60;;;10.40;99.90;;;;;;5137322;27;20196;-81
2023/04/21 01:33:44;;;;;;;17.60;11.20;;;10.20;99.90;;;;;;5123806;28;20765;-82
2023/04/21 01:36:12;;;;;;;19.08;12.32;;;10.20;99.90;;;;;;5140074;27;20252;-81
2023/04/21 01:38:40;;;;;;;11.75;10.65;;;10.10;99.90;;;;;;5139907;27;20188;-81
2023/04/21 01:41:08;;;;;;;17.30;13.18;;;10.00;99.90;;;;;;5143177;27;20220;-81
2023/04/21 01:43:36;;;;;;;16.67;11.88;;;9.90;99.90;;;;;;5133285;27;20261;-81
2023/04/21 01:46:04;;;;;;;14.20;11.98;;;10.00;99.90;;;;;;5109007;28;20536;-80
2023/04/21 01:48:31;;;;;;;19.48;13.55;;;10.00;99.90;;;;;;5124625;27;20748;-83
2023/04/21 01:50:58;;;;;;;13.68;11.35;;;10.00;99.90;;;;;;5119079;28;20214;-81
2023/04/21 01:53:25;;;;;;;24.77;12.85;;;9.90;99.90;;;;;;5118320;28;20208;-81
2023/04/21 01:55:52;;;;;;;18.67;12.02;;;9.80;99.90;;;;;;5127458;27;20543;-80
2023/04/21 01:58:20;;;;;;;17.40;12.02;;;9.70;99.90;;;;;;5135817;27;20218;-80
2023/04/21 02:00:47;;;;;;;25.60;12.27;;;9.80;99.90;;;;;;5129143;27;20194;-81
2023/04/21 02:03:14;;;;;;;25.25;14.30;;;9.80;99.90;;;;;;5126507;27;20523;-82
2023/04/21 02:05:42;;;;;;;17.17;12.80;;;9.80;99.90;;;;;;5124560;28;20217;-82
2023/04/21 02:08:09;;;;;;;19.02;14.55;;;9.60;99.90;;;;;;5130894;28;20214;-82
2023/04/21 02:10:36;;;;;;;21.27;12.75;;;9.50;99.90;;;;;;5127880;28;20203;-81
2023/04/21 02:13:02;;;;;;;20.50;14.40;;;9.50;99.90;;;;;;5136684;28;20263;-82
2023/04/21 02:15:30;;;;;;;18.92;13.40;;;9.50;99.90;;;;;;5134841;28;20709;-83
2023/04/21 02:17:56;;;;;;;15.73;12.55;;;9.50;99.90;;;;;;5120821;28;20447;-82
2023/04/21 02:20:24;;;;;;;18.92;13.52;;;9.30;99.90;;;;;;5131454;28;20203;-82
2023/04/21 02:22:53;;;;;;;20.50;13.20;;;9.40;99.90;;;;;;5123949;28;20677;-82
2023/04/21 02:25:20;;;;;;;18.10;14.32;;;9.30;99.90;;;;;;5138415;28;20208;-83
2023/04/21 02:27:46;;;;;;;17.27;14.23;;;9.40;99.90;;;;;;5130865;28;20256;-82
2023/04/21 02:30:14;;;;;;;19.13;14.68;;;9.50;99.90;;;;;;5124161;27;20209;-82
2023/04/21 02:32:41;;;;;;;17.20;14.07;;;9.20;99.90;;;;;;5133011;27;20208;-82
2023/04/21 02:35:08;;;;;;;21.92;13.38;;;9.10;99.90;;;;;;5139473;27;20225;-82
2023/04/21 02:37:36;;;;;;;19.40;13.52;;;8.90;99.90;;;;;;5127909;27;20232;-82
2023/04/21 02:40:04;;;;;;;14.07;12.63;;;9.00;99.90;;;;;;5117029;27;20205;-82
2023/04/21 02:42:34;;;;;;;17.05;13.52;;;9.00;99.90;;;;;;5140316;27;20620;-82
2023/04/21 02:45:01;;;;;;;23.00;15.48;;;8.80;99.90;;;;;;5139765;27;20271;-82
2023/04/21 02:47:28;;;;;;;29.83;16.85;;;8.90;99.90;;;;;;5127263;27;20267;-83
2023/04/21 02:49:56;;;;;;;27.15;16.88;;;8.80;99.90;;;;;;5138491;27;20207;-82
2023/04/21 02:52:23;;;;;;;20.60;15.65;;;8.60;99.90;;;;;;5122868;28;20203;-81
2023/04/21 02:54:50;;;;;;;23.30;18.95;;;8.60;99.90;;;;;;5137121;27;20258;-83
2023/04/21 02:57:17;;;;;;;25.27;16.45;;;8.60;99.90;;;;;;5137408;27;20222;-82
2023/04/21 02:59:44;;;;;;;21.48;16.38;;;8.60;99.90;;;;;;5138643;27;20628;-80
2023/04/21 03:02:11;;;;;;;24.90;17.55;;;8.70;99.90;;;;;;5131952;27;20223;-81
2023/04/21 03:04:38;;;;;;;28.23;17.33;;;8.60;99.90;;;;;;5121894;28;20197;-81
2023/04/21 03:07:11;;;;;;;27.30;18.77;;;8.50;99.90;;;;;;5132805;27;20205;-82
2023/04/21 03:09:38;;;;;;;20.42;17.48;;;8.40;99.90;;;;;;5133497;27;20503;-82
2023/04/21 03:12:05;;;;;;;23.45;17.05;;;8.40;99.90;;;;;;5140640;27;20200;-82
2023/04/21 03:14:32;;;;;;;27.60;19.90;;;8.40;99.90;;;;;;5138646;27;20193;-82
2023/04/21 03:16:59;;;;;;;23.08;20.17;;;8.30;99.90;;;;;;5139135;27;20285;-82
2023/04/21 03:19:26;;;;;;;31.27;18.33;;;8.20;99.90;;;;;;5136523;27;20241;-82
2023/04/21 03:21:57;;;;;;;26.15;21.65;;;8.00;99.90;;;;;;5134687;27;20728;-81
2023/04/21 03:24:25;;;;;;;27.85;20.85;;;8.10;99.90;;;;;;5117781;27;20565;-83
2023/04/21 03:26:52;;;;;;;22.35;17.63;;;8.10;99.90;;;;;;5138345;27;20236;-82
2023/04/21 03:29:19;;;;;;;25.75;20.10;;;8.10;99.90;;;;;;5129475;27;20197;-83
2023/04/21 03:31:47;;;;;;;28.98;20.42;;;8.00;99.90;;;;;;5130111;27;20284;-82
2023/04/21 03:34:16;;;;;;;28.70;19.73;;;8.10;99.90;;;;;;5139889;27;20217;-81
2023/04/21 03:36:46;;;;;;;26.30;21.33;;;8.00;99.90;;;;;;5126030;27;20251;-81
2023/04/21 03:39:12;;;;;;;29.33;21.48;;;8.00;99.90;;;;;;5137990;27;20209;-81
2023/04/21 03:41:44;;;;;;;27.17;19.35;;;8.00;99.90;;;;;;5137180;27;20201;-82
2023/04/21 03:44:11;;;;;;;30.70;22.27;;;7.90;99.90;;;;;;5130209;27;20202;-81
2023/04/21 03:46:40;;;;;;;32.00;20.35;;;7.80;99.90;;;;;;5121028;27;20209;-80
2023/04/21 03:49:07;;;;;;;23.95;18.65;;;7.80;99.90;;;;;;5139216;27;20209;-81
2023/04/21 03:51:34;;;;;;;32.83;22.75;;;7.70;99.90;;;;;;5136033;27;20223;-81
2023/04/21 03:54:01;;;;;;;28.25;21.90;;;7.60;99.90;;;;;;5124760;27;20197;-81
2023/04/21 03:56:30;;;;;;;28.05;22.10;;;7.50;99.90;;;;;;5126702;27;20205;-80
2023/04/21 03:58:57;;;;;;;29.35;22.63;;;7.60;99.90;;;;;;5133576;27;20597;-81
2023/04/21 04:01:26;;;;;;;27.63;20.70;;;7.60;99.90;;;;;;5129152;27;20425;-81
2023/04/21 04:03:52;;;;;;;27.52;21.33;;;7.70;99.90;;;;;;5128071;27;20208;-80
2023/04/21 04:06:20;;;;;;;30.05;21.38;;;7.70;99.90;;;;;;5131697;27;20205;-80
2023/04/21 04:08:47;;;;;;;33.55;22.23;;;7.80;99.90;;;;;;5127807;27;20213;-80
2023/04/21 04:11:14;;;;;;;33.83;23.08;;;7.80;99.90;;;;;;5130694;27;20255;-80
2023/04/21 04:13:41;;;;;;;29.55;21.80;;;7.90;99.90;;;;;;5116181;27;20201;-81
2023/04/21 04:16:08;;;;;;;34.42;23.98;;;7.90;99.90;;;;;;5126748;27;20243;-80
2023/04/21 04:18:34;;;;;;;37.95;23.70;;;8.00;99.90;;;;;;5128797;27;20218;-82
2023/04/21 04:21:06;;;;;;;33.38;23.08;;;8.10;99.90;;;;;;5112951;27;20197;-82
2023/04/21 04:23:33;;;;;;;27.75;21.90;;;8.20;99.90;;;;;;5130470;27;20202;-82
2023/04/21 04:26:04;;;;;;;27.10;21.40;;;8.30;99.90;;;;;;5125302;27;20198;-82
2023/04/21 04:28:31;;;;;;;31.63;24.35;;;8.30;99.90;;;;;;5127300;27;20205;-82
2023/04/21 04:30:59;;;;;;;30.02;22.08;;;8.60;99.90;;;;;;5129301;27;20239;-83
2023/04/21 04:33:28;;;;;;;28.90;22.73;;;8.60;99.90;;;;;;5142500;27;20239;-82
2023/04/21 04:35:54;;;;;;;32.58;23.40;;;8.70;99.90;;;;;;5111733;27;20556;-84
2023/04/21 04:38:21;;;;;;;36.13;20.45;;;8.90;99.90;;;;;;5136833;27;20236;-84
2023/04/21 04:40:53;;;;;;;39.20;20.02;;;8.90;99.90;;;;;;5115254;27;20202;-82
2023/04/21 04:43:20;;;;;;;32.55;19.30;;;9.00;99.90;;;;;;5124807;27;20831;-82
2023/04/21 04:45:47;;;;;;;33.47;20.00;;;9.10;99.90;;;;;;5134447;27;20193;-83
2023/04/21 04:48:14;;;;;;;28.45;19.50;;;9.00;99.90;;;;;;5115686;27;20230;-81
2023/04/21 04:50:44;;;;;;;27.25;18.60;;;9.00;99.90;;;;;;5141431;27;20246;-83
2023/04/21 04:53:11;;;;;;;36.15;18.20;;;9.20;99.90;;;;;;5125538;27;20525;-84
2023/04/21 04:55:38;;;;;;;22.45;18.80;;;9.40;99.90;;;;;;5122617;27;20371;-82
2023/04/21 04:58:05;;;;;;;24.38;19.10;;;9.30;99.90;;;;;;5110578;27;20244;-82
2023/04/21 05:00:32;;;;;;;30.80;17.05;;;9.60;99.90;;;;;;5135343;27;20276;-83
2023/04/21 05:02:59;;;;;;;20.02;16.15;;;9.70;99.90;;;;;;5124534;27;20203;-82
2023/04/21 05:05:27;;;;;;;23.27;15.95;;;10.10;99.90;;;;;;5110420;28;20452;-83
2023/04/21 05:07:54;;;;;;;18.20;16.08;;;10.20;99.90;;;;;;5138031;27;20228;-85
2023/04/21 05:10:22;;;;;;;21.45;13.85;;;10.50;99.90;;;;;;5127508;27;20238;-84
2023/04/21 05:12:49;;;;;;;22.88;16.42;;;10.60;99.90;;;;;;5128430;27;20200;-84
2023/04/21 05:15:17;;;;;;;20.55;14.15;;;10.50;99.90;;;;;;5134116;27;20442;-85
2023/04/21 05:17:44;;;;;;;21.60;14.73;;;10.40;99.90;;;;;;5110777;27;20240;-85
2023/04/21 05:20:11;;;;;;;19.60;15.43;;;10.20;99.90;;;;;;5124669;27;20220;-84
2023/04/21 05:22:39;;;;;;;21.73;14.18;;;10.50;99.90;;;;;;5104120;28;20201;-82
2023/04/21 05:25:06;;;;;;;18.63;14.10;;;10.40;99.90;;;;;;5120194;28;20212;-82
2023/04/21 05:27:35;;;;;;;16.67;13.52;;;10.70;99.90;;;;;;5122081;27;20209;-83
2023/04/21 05:30:02;;;;;;;19.95;15.20;;;10.70;99.90;;;;;;5124505;27;20198;-83
2023/04/21 05:32:32;;;;;;;17.70;12.88;;;10.60;99.90;;;;;;5096509;28;20505;-82
2023/04/21 05:35:00;;;;;;;14.57;12.02;;;10.70;99.90;;;;;;5114766;27;20210;-83
2023/04/21 05:37:28;;;;;;;15.25;12.13;;;10.90;99.90;;;;;;5123160;27;20231;-82
2023/04/21 05:39:55;;;;;;;20.58;11.95;;;11.10;99.90;;;;;;5107292;27;20243;-83
2023/04/21 05:42:23;;;;;;;17.58;12.30;;;11.10;99.90;;;;;;5114391;28;20201;-84
2023/04/21 05:44:50;;;;;;;19.17;11.63;;;11.30;99.90;;;;;;5145151;27;20247;-84
2023/04/21 05:47:18;;;;;;;15.75;13.38;;;11.60;99.90;;;;;;5149648;27;20204;-83
2023/04/21 05:49:48;;;;;;;13.65;12.00;;;11.90;99.90;;;;;;5137407;27;20187;-83
2023/04/21 05:52:16;;;;;;;16.85;11.77;;;12.10;99.90;;;;;;5138467;27;20227;-81
2023/04/21 05:54:46;;;;;;;30.80;12.75;;;12.20;99.90;;;;;;5133934;27;20197;-83
2023/04/21 05:57:15;;;;;;;16.35;12.35;;;12.10;99.90;;;;;;5131700;27;20217;-83
2023/04/21 05:59:44;;;;;;;15.98;13.45;;;12.10;99.90;;;;;;5124182;27;20427;-83
2023/04/21 06:02:11;;;;;;;19.08;12.57;;;12.20;99.90;;;;;;5130505;27;20247;-84
2023/04/21 06:04:39;;;;;;;21.13;14.40;;;12.60;99.90;;;;;;5109956;27;20204;-83
2023/04/21 06:07:06;;;;;;;14.80;12.07;;;12.90;99.90;;;;;;5130980;27;20269;-83
2023/04/21 06:09:34;;;;;;;15.13;12.15;;;13.00;99.90;;;;;;5121546;28;20247;-84
2023/04/21 06:12:02;;;;;;;16.48;12.38;;;13.00;99.90;;;;;;5123791;28;20199;-84
2023/04/21 06:14:29;;;;;;;18.45;12.00;;;12.90;99.90;;;;;;5115553;28;20200;-84
2023/04/21 06:16:56;;;;;;;15.10;12.50;;;13.10;99.90;;;;;;5131858;28;20205;-85
2023/04/21 06:19:23;;;;;;;22.88;13.20;;;13.20;99.90;;;;;;5126253;28;20204;-83
2023/04/21 06:21:51;;;;;;;18.70;12.07;;;13.40;99.90;;;;;;5129553;28;20205;-84
2023/04/21 06:24:23;;;;;;;15.57;12.02;;;13.70;99.90;;;;;;5125577;28;20202;-82
2023/04/21 06:26:52;;;;;;;14.93;12.90;;;14.40;99.90;;;;;;5116215;28;20234;-83
2023/04/21 06:29:23;;;;;;;17.98;13.93;;;15.30;99.90;;;;;;5130011;28;20217;-83
2023/04/21 06:31:50;;;;;;;14.30;12.00;;;14.80;99.90;;;;;;5120822;28;20193;-83
2023/04/21 06:34:18;;;;;;;18.20;12.30;;;15.10;99.90;;;;;;5129318;28;20437;-85
2023/04/21 06:36:48;;;;;;;13.00;11.20;;;14.70;99.90;;;;;;5116785;28;20429;-84
2023/04/21 06:39:15;;;;;;;14.73;12.40;;;15.50;99.90;;;;;;5103379;28;20448;-84
2023/04/21 06:41:44;;;;;;;17.97;12.20;;;16.50;99.90;;;;;;5127163;28;20524;-84
2023/04/21 06:44:12;;;;;;;19.73;12.40;;;16.80;99.90;;;;;;5123978;28;20517;-85
2023/04/21 06:46:42;;;;;;;13.13;11.70;;;16.90;99.90;;;;;;5133593;28;20613;-85
2023/04/21 06:49:12;;;;;;;12.07;10.80;;;17.00;99.90;;;;;;5128922;28;20419;-85
2023/04/21 06:51:38;;;;;;;14.17;11.40;;;17.00;99.90;;;;;;5125889;28;20992;-84
2023/04/21 06:54:06;;;;;;;13.80;12.40;;;17.20;99.90;;;;;;5126893;28;20490;-84
2023/04/21 06:56:33;;;;;;;13.63;11.73;;;17.40;99.90;;;;;;5137870;28;20758;-83
2023/04/21 06:59:00;;;;;;;13.80;11.80;;;17.00;99.90;;;;;;5109052;28;20511;-83
2023/04/21 07:01:29;;;;;;;21.20;13.00;;;16.80;99.90;;;;;;5139291;28;20428;-85
2023/04/21 07:03:55;;;;;;;15.10;11.70;;;17.10;99.90;;;;;;5135570;28;20416;-84
2023/04/21 07:06:23;;;;;;;15.20;13.60;;;17.80;99.90;;;;;;5108445;28;20612;-84
2023/04/21 07:08:50;;;;;;;15.70;14.07;;;20.20;99.90;;;;;;5107520;28;20482;-83
2023/04/21 07:11:18;;;;;;;13.47;12.07;;;21.80;99.90;;;;;;5130206;28;20437;-83
2023/04/21 07:13:45;;;;;;;22.90;12.90;;;23.30;98.30;;;;;;5126997;28;20614;-83
2023/04/21 07:16:13;;;;;;;14.07;12.47;;;23.40;95.50;;;;;;5121707;28;20409;-86
2023/04/21 07:18:43;;;;;;;22.70;14.90;;;23.40;94.00;;;;;;5110018;28;20526;-83
2023/04/21 07:21:10;;;;;;;14.67;13.20;;;23.80;91.80;;;;;;5114506;27;20412;-83
2023/04/21 07:23:36;;;;;;;15.60;13.07;;;23.70;91.90;;;;;;5119967;27;20465;-82
2023/04/21 07:26:03;;;;;;;17.90;13.90;;;25.20;86.80;;;;;;5123088;27;20434;-83
2023/04/21 07:28:30;;;;;;;18.13;12.90;;;26.50;79.40;;;;;;5130977;27;20819;-85
2023/04/21 07:30:57;;;;;;;17.07;14.00;;;27.50;71.20;;;;;;5136210;27;20447;-84
2023/04/21 07:33:28;;;;;;;17.97;13.20;;;25.50;72.50;;;;;;5137114;27;20446;-82
2023/04/21 07:35:57;;;;;;;16.03;14.27;;;25.60;74.30;;;;;;5104774;27;20454;-83
2023/04/21 07:38:25;;;;;;;19.43;14.17;;;26.20;71.20;;;;;;5119628;27;20707;-84
2023/04/21 07:40:52;;;;;;;15.87;14.23;;;26.10;69.30;;;;;;5136386;27;20429;-83
2023/04/21 07:43:21;;;;;;;16.43;13.57;;;27.00;72.10;;;;;;5108239;28;20445;-85
2023/04/21 07:45:50;;;;;;;15.20;13.80;;;28.40;65.80;;;;;;5121743;27;21053;-83
2023/04/21 07:48:17;;;;;;;16.03;14.43;;;28.10;61.30;;;;;;5115960;28;20762;-83
2023/04/21 07:50:44;;;;;;;17.90;14.80;;;28.20;59.80;;;;;;5123620;27;20495;-83
2023/04/21 07:53:12;;;;;;;18.50;14.47;;;28.70;58.80;;;;;;5116548;27;20430;-83
2023/04/21 07:55:41;;;;;;;15.20;13.07;;;28.20;58.60;;;;;;5113789;28;20873;-84
2023/04/21 07:58:12;;;;;;;15.57;13.97;;;29.10;57.50;;;;;;5129935;27;20450;-83
2023/04/21 08:00:39;;;;;;;16.30;14.57;;;30.70;55.70;;;;;;5131948;27;20483;-84
2023/04/21 08:03:07;;;;;;;19.20;13.43;;;31.50;53.00;;;;;;5124318;27;20502;-84
2023/04/21 08:05:36;;;;;;;17.50;15.73;;;31.60;51.50;;;;;;5128574;27;20445;-83
2023/04/21 08:08:07;;;;;;;22.73;14.40;;;32.30;49.00;;;;;;5136896;27;20622;-84
2023/04/21 08:10:34;;;;;;;20.53;14.77;;;32.90;47.60;;;;;;5112785;27;20442;-84
2023/04/21 08:13:05;;;;;;;16.23;14.30;;;32.60;47.50;;;;;;5128095;27;20461;-85
2023/04/21 08:15:33;;;;;;;17.47;15.07;;;32.20;47.40;;;;;;5134393;27;20434;-87
2023/04/21 08:18:01;;;;;;;16.30;14.57;;;29.90;50.50;;;;;;5132136;27;20457;-84
2023/04/21 08:20:28;;;;;;;15.40;13.90;;;28.20;53.00;;;;;;5128001;27;20542;-83
2023/04/21 08:22:55;;;;;;;17.33;14.37;;;27.40;55.90;;;;;;5131614;27;20461;-83
2023/04/21 08:25:21;;;;;;;18.73;14.33;;;28.90;53.30;;;;;;5129854;27;20449;-84
2023/04/21 08:27:49;;;;;;;17.00;13.40;;;28.60;52.10;;;;;;5136747;27;20481;-84
2023/04/21 08:30:17;;;;;;;14.90;13.37;;;29.50;51.30;;;;;;5110263;28;20441;-84
2023/04/21 08:32:44;;;;;;;13.67;12.27;;;30.20;50.00;;;;;;5132054;27;20442;-84
2023/04/21 08:35:14;;;;;;;14.60;12.83;;;30.30;50.70;;;;;;5129441;27;20434;-84
2023/04/21 08:37:41;;;;;;;13.33;12.10;;;28.00;51.30;;;;;;5142221;27;20448;-84
2023/04/21 08:40:10;;;;;;;12.90;11.47;;;27.50;53.40;;;;;;5103413;27;20454;-84
2023/04/21 08:42:38;;;;;;;12.03;10.93;;;28.10;52.40;;;;;;5130905;27;20433;-85
2023/04/21 08:45:05;;;;;;;13.60;12.30;;;27.90;51.70;;;;;;5134414;27;20459;-84
2023/04/21 08:47:32;;;;;;;13.03;11.87;;;27.80;52.40;;;;;;5129767;27;20480;-86
2023/04/21 08:50:00;;;;;;;17.80;13.20;;;27.00;53.00;;;;;;5121071;27;20446;-82
2023/04/21 08:52:27;;;;;;;15.97;13.20;;;27.40;54.40;;;;;;5130180;27;20432;-83
2023/04/21 08:54:55;;;;;;;14.50;13.30;;;29.70;51.10;;;;;;5132501;27;20449;-83
2023/04/21 08:57:22;;;;;;;14.63;13.13;;;29.20;51.20;;;;;;5130314;27;20437;-83
2023/04/21 08:59:51;;;;;;;11.83;10.63;;;29.50;50.90;;;;;;5120195;28;20457;-84
2023/04/21 09:02:18;;;;;;;12.43;11.23;;;30.10;49.00;;;;;;5128285;27;20442;-85
2023/04/21 09:04:49;;;;;;;12.00;10.90;;;29.70;49.60;;;;;;5104835;28;20503;-85
2023/04/21 09:07:33;;;;;;;13.40;10.33;;;28.50;49.60;;;;;;5129258;27;20433;-84
2023/04/21 09:10:01;;;;;;;13.20;10.80;;;29.00;49.20;;;;;;5127092;27;20478;-83
2023/04/21 09:12:29;;;;;;;11.93;10.10;;;30.40;47.70;;;;;;5115243;27;20448;-83
2023/04/21 09:14:57;;;;;;;13.00;11.70;;;29.80;49.90;;;;;;5136145;27;20632;-84
2023/04/21 09:17:32;;;;;;;12.47;10.60;;;28.30;51.40;;;;;;5135630;27;20864;-84
2023/04/21 09:20:21;;;;;;;14.17;11.17;;;27.70;52.00;;;;;;5127898;27;20753;-83
2023/04/21 09:22:50;;;;;;;14.47;10.90;;;27.10;52.90;;;;;;5121806;27;20434;-84
2023/04/21 09:25:22;;;;;;;12.43;10.53;;;26.10;54.50;;;;;;5127503;27;20430;-83
2023/04/21 09:27:48;;;;;;;12.50;10.80;;;25.10;55.90;;;;;;5133256;27;20541;-84
2023/04/21 09:30:19;;;;;;;12.70;10.27;;;23.50;59.60;;;;;;5128593;27;20450;-85
2023/04/21 09:32:46;;;;;;;11.43;9.50;;;22.00;65.90;;;;;;5119849;28;20776;-86
2023/04/21 09:35:14;;;;;;;12.27;11.07;;;21.10;72.40;;;;;;5106790;27;20445;-83
2023/04/21 09:37:43;;;;;;;13.50;10.90;;;20.40;84.50;;;;;;5125458;27;20417;-82
2023/04/21 09:40:16;;;;;;;10.70;9.80;;;20.30;90.80;;;;;;5132316;27;20451;-88
2023/04/21 09:42:43;;;;;;;10.37;9.10;;;20.40;91.90;;;;;;5120813;28;20428;-85
2023/04/21 09:45:16;;;;;;;15.10;9.73;;;20.20;88.50;;;;;;5131690;27;20702;-84
2023/04/21 09:48:06;;;;;;;10.10;9.10;;;20.10;90.00;;;;;;5132497;27;20392;-84
2023/04/21 09:50:36;;;;;;;8.80;7.90;;;19.70;90.50;;;;;;5136669;27;20412;-84
2023/04/21 09:53:11;;;;;;;16.73;8.60;;;19.90;90.50;;;;;;5126971;28;20392;-86
2023/04/21 09:55:40;;;;;;;16.43;12.20;;;20.10;91.60;;;;;;5146841;27;20420;-85
2023/04/21 09:58:12;;;;;;;10.60;8.80;;;20.30;91.00;;;;;;5136932;27;20408;-87
2023/04/21 10:00:39;;;;;;;25.00;10.17;;;20.00;93.30;;;;;;5126616;28;20584;-85
2023/04/21 10:03:10;;;;;;;12.17;9.20;;;20.00;94.30;;;;;;5112516;28;20452;-87
2023/04/21 10:05:38;;;;;;;9.33;8.43;;;20.20;93.60;;;;;;5112319;27;20396;-85
2023/04/21 10:08:10;;;;;;;11.03;9.40;;;20.10;90.10;;;;;;5144422;27;20403;-85
2023/04/21 10:10:39;;;;;;;11.13;9.40;;;19.80;91.50;;;;;;5116144;28;20430;-84
2023/04/21 10:13:14;;;;;;;12.80;9.60;;;19.30;90.70;;;;;;5130757;28;20441;-87
2023/04/21 10:15:41;;;;;;;12.60;9.97;;;18.80;93.10;;;;;;5129435;28;20402;-85
2023/04/21 10:18:24;;;;;;;11.47;9.63;;;19.10;93.60;;;;;;5119945;28;20416;-84
2023/04/21 10:21:02;;;;;;;11.10;9.97;;;19.30;94.60;;;;;;5131211;28;20731;-84
2023/04/21 10:23:40;;;;;;;11.77;9.97;;;19.40;93.40;;;;;;5125613;28;20469;-87
2023/04/21 10:26:15;;;;;;;10.57;9.30;;;19.50;93.80;;;;;;5117842;28;20449;-85
2023/04/21 10:28:53;;;;;;;10.00;8.43;;;19.40;92.90;;;;;;5122245;28;20648;-85
2023/04/21 10:31:35;;;;;;;8.50;7.57;;;19.30;94.10;;;;;;5119674;28;20445;-85
2023/04/21 10:34:05;;;;;;;8.53;7.60;;;19.50;91.00;;;;;;5122332;28;20638;-86
2023/04/21 10:36:47;;;;;;;10.47;8.13;;;19.80;90.70;;;;;;5124465;28;20434;-86
2023/04/21 10:39:36;;;;;;;7.73;7.03;;;19.80;90.90;;;;;;5108280;28;20432;-84
2023/04/21 10:42:15;;;;;;;9.60;7.53;;;19.90;92.40;;;;;;5125163;28;20429;-87
2023/04/21 10:44:42;;;;;;;10.47;7.37;;;20.20;86.90;;;;;;5114286;28;20610;-85
2023/04/21 10:47:10;;;;;;;8.53;7.73;;;20.00;78.90;;;;;;5123494;28;20800;-85
2023/04/21 10:49:39;;;;;;;7.80;6.90;;;19.60;86.80;;;;;;5118349;28;20451;-85
2023/04/21 10:52:09;;;;;;;10.07;9.17;;;19.30;90.80;;;;;;5100741;27;20445;-87
2023/04/21 10:54:45;;;;;;;11.77;9.60;;;19.00;92.90;;;;;;5124232;27;20597;-86
2023/04/21 10:57:18;;;;;;;9.87;8.57;;;19.00;94.30;;;;;;5134407;27;20414;-90
2023/04/21 10:59:47;;;;;;;10.73;8.40;;;18.80;92.90;;;;;;5130881;27;20418;-84
2023/04/21 11:02:16;;;;;;;12.90;8.40;;;18.90;93.00;;;;;;5133164;27;20498;-83
2023/04/21 11:04:46;;;;;;;9.60;7.33;;;18.90;91.70;;;;;;5112339;27;20419;-85
2023/04/21 11:07:21;;;;;;;9.30;6.93;;;19.30;89.70;;;;;;5129527;27;20458;-87
2023/04/21 11:10:06;;;;;;;12.87;7.30;;;19.30;91.30;;;;;;5140467;27;20445;-86
2023/04/21 11:12:36;;;;;;;13.20;10.07;;;19.40;91.40;;;;;;5128157;27;20407;-83
2023/04/21 11:15:10;;;;;;;12.90;6.93;;;19.50;90.00;;;;;;5105864;28;20416;-85
2023/04/21 11:17:42;;;;;;;8.97;5.73;;;19.60;84.80;;;;;;5136401;27;20442;-86
2023/04/21 11:20:10;;;;;;;7.80;6.10;;;19.10;82.70;;;;;;5140265;27;20435;-86
2023/04/21 11:22:37;;;;;;;8.57;6.30;;;18.90;87.10;;;;;;5131109;27;20453;-85
2023/04/21 11:25:05;;;;;;;9.53;7.10;;;18.80;85.00;;;;;;5133787;27;20447;-87
2023/04/21 11:27:32;;;;;;;8.13;5.90;;;18.60;82.00;;;;;;5139407;27;20413;-87
2023/04/21 11:30:02;;;;;;;9.10;6.23;;;18.70;81.90;;;;;;5142000;27;20466;-86
2023/04/21 11:32:30;;;;;;;9.30;6.30;;;18.70;82.00;;;;;;5139582;27;20431;-85
2023/04/21 11:35:01;;;;;;;7.50;5.60;;;18.70;83.80;;;;;;5136410;27;20445;-88
2023/04/21 11:37:29;;;;;;;9.80;6.40;;;18.90;81.40;;;;;;5141434;27;20402;-83
2023/04/21 11:40:00;;;;;;;7.17;6.50;;;19.00;79.70;;;;;;5126784;27;20439;-86
2023/04/21 11:42:29;;;;;;;6.40;5.80;;;19.20;80.80;;;;;;5119093;27;20444;-87
2023/04/21 11:45:04;;;;;;;6.97;6.27;;;19.40;78.30;;;;;;5135127;27;20430;-85
2023/04/21 11:47:36;;;;;;;6.27;5.67;;;19.40;78.70;;;;;;5118893;27;20427;-85
2023/04/21 11:50:03;;;;;;;6.10;5.60;;;19.50;78.00;;;;;;5132568;27;20472;-85
2023/04/21 11:52:36;;;;;;;6.67;6.07;;;19.30;77.20;;;;;;5142283;27;20496;-86
2023/04/21 11:55:18;;;;;;;6.87;6.23;;;19.20;76.10;;;;;;5121679;27;20494;-86
2023/04/21 11:57:46;;;;;;;10.00;5.90;;;19.10;77.50;;;;;;5131229;27;20425;-86
2023/04/21 12:00:14;;;;;;;7.23;5.27;;;19.00;77.40;;;;;;5110267;27;20443;-86
2023/04/21 12:02:42;;;;;;;7.33;6.63;;;19.00;79.80;;;;;;5141502;27;20450;-85
2023/04/21 12:05:11;;;;;;;6.47;5.90;;;19.20;81.50;;;;;;5135674;27;20480;-85
2023/04/21 12:07:42;;;;;;;6.40;5.70;;;19.20;77.70;;;;;;5139617;27;20763;-86
2023/04/21 12:10:15;;;;;;;7.90;5.80;;;18.90;78.80;;;;;;5138230;27;20453;-84
2023/04/21 12:12:43;;;;;;;8.20;6.20;;;18.80;81.40;;;;;;5123001;27;20447;-87
2023/04/21 12:15:18;;;;;;;6.80;6.10;;;19.00;81.50;;;;;;5111828;27;20815;-87
2023/04/21 12:17:53;;;;;;;9.37;7.37;;;18.70;82.20;;;;;;5128601;27;20416;-87
2023/04/21 12:20:22;;;;;;;6.60;6.00;;;18.70;81.40;;;;;;5133317;27;20436;-87
2023/04/21 12:22:49;;;;;;;8.23;6.13;;;18.90;81.80;;;;;;5137157;27;20790;-86
2023/04/21 12:25:19;;;;;;;10.90;7.03;;;19.00;79.80;;;;;;5111700;27;20660;-85
2023/04/21 12:27:52;;;;;;;10.87;7.20;;;19.30;81.10;;;;;;5125995;27;20495;-86
2023/04/21 12:30:20;;;;;;;10.20;6.53;;;19.50;82.50;;;;;;5128094;27;20490;-83
2023/04/21 12:32:50;;;;;;;6.50;5.80;;;19.40;81.60;;;;;;5130895;27;20406;-84
2023/04/21 12:35:21;;;;;;;8.10;7.30;;;19.50;83.10;;;;;;5132022;27;20981;-88
2023/04/21 12:37:51;;;;;;;8.50;7.03;;;19.60;83.00;;;;;;5124375;27;20407;-85
2023/04/21 12:40:18;;;;;;;6.77;6.17;;;19.60;79.00;;;;;;5134297;27;20442;-86
2023/04/21 12:42:45;;;;;;;6.63;6.07;;;19.60;77.40;;;;;;5135615;27;20425;-83